Friday, November 17, 2017, 2:36 PM EST
Back to Local

KACK, Nantucket Memorial Airport

Location: Nantucket, MA, United States Lat: 41.25
Local Time: 2:36 PM EST (19:36 GMT) Lon: -70.067
Time Zone: US/Eastern Elev: 49 ft

Show me the last for .
Show Decoded

2017-11-17 13:53 METAR KACK 171853Z 30014G23KT 10SM CLR 07/M02 A2985 RMK AO2 PK WND 31027/1800
                 SLP108 T00721017 =
2017-11-17 12:53 METAR KACK 171753Z 30017G25KT 10SM CLR 07/M01 A2985 RMK AO2 PK WND 31027/1733
                 SLP109 T00721011 10072 20056 56003 =
2017-11-17 11:53 METAR KACK 171653Z 30018G24KT 10SM FEW034 07/M01 A2985 RMK AO2 PK WND 32028/1630
                 SLP109 T00721006 =
2017-11-17 10:53 METAR KACK 171553Z 31021G27KT 10SM BKN036 06/M01 A2986 RMK AO2 PK WND 32027/1550
                 SLP111 T00611011 =
2017-11-17 09:53 METAR KACK 171453Z 32019G26KT 10SM OVC036 06/00 A2986 RMK AO2 PK WND 32028/1437
                 SLP111 T00560000 51017 =
2017-11-17 08:53 METAR KACK 171353Z 31020G29KT 10SM OVC036 06/M01 A2985 RMK AO2 PK WND 33030/1317
                 SLP108 T00561006 =
2017-11-17 07:53 METAR KACK 171253Z 31020G29KT 10SM OVC036 06/M01 A2983 RMK AO2 PK WND 30031/1216
                 SLP102 T00561006 =
2017-11-17 06:53 METAR KACK 171153Z 30021G30KT 10SM BKN037 OVC043 06/00 A2981 RMK AO2 PK WND
                 30031/1121 SLP094 70055 T00610000 10072 20056 53022 =
2017-11-17 05:53 METAR KACK 171053Z 29011G19KT 10SM SCT036 06/01 A2978 RMK AO2 SLP086 T00560006 =
2017-11-17 04:53 METAR KACK 170953Z AUTO 29013G22KT 10SM CLR 06/01 A2976 RMK AO2 SLP078 T00560011
                 TSNO =
2017-11-17 03:53 METAR KACK 170853Z AUTO 29011G22KT 10SM CLR 06/01 A2975 RMK AO2 SLP073 T00560011
                 51012 TSNO =
2017-11-17 02:53 METAR KACK 170753Z AUTO 28013KT 10SM CLR 06/02 A2973 RMK AO2 PK WND 28028/0703
                 SLP069 T00610017 TSNO =
2017-11-17 01:53 METAR KACK 170653Z AUTO 29016G23KT 10SM CLR 07/02 A2973 RMK AO2 SLP067 T00670022
                 TSNO =
2017-11-17 00:53 METAR KACK 170553Z AUTO 29017G26KT 10SM CLR 07/03 A2971 RMK AO2 PK WND
                 27026/0547 SLP061 60003 T00720033 10100 20072 58000 TSNO =
2017-11-16 23:53 METAR KACK 170453Z AUTO 28017G22KT 10SM CLR 07/04 A2972 RMK AO2 SLP062 T00720044
                 401220056 TSNO =
2017-11-16 22:53 METAR KACK 170353Z AUTO 27010KT 10SM CLR 07/05 A2971 RMK AO2 SLP062 T00720050
                 TSNO =
2017-11-16 21:53 METAR KACK 170253Z AUTO 28012KT 10SM CLR 08/06 A2971 RMK AO2 SLP061 60003
                 T00780061 50006 TSNO =
2017-11-16 20:53 METAR KACK 170153Z AUTO 29010KT 10SM CLR 08/07 A2972 RMK AO2 PK WND 28031/0055
                 RAE14 SLP063 P0002 T00780067 TSNO =
2017-11-16 19:53 METAR KACK 170053Z 28023G36KT 7SM -RA FEW027 BKN045 OVC075 08/07 A2971 RMK AO2
                 PK WND 26036/0050 RAB42 SLP062 P0001 T00830072 =
2017-11-16 18:53 METAR KACK 162353Z 27008KT 10SM FEW080 09/09 A2969 RMK AO2 SLP055 60041
                 T00890089 10122 20083 50017 =
2017-11-16 17:53 METAR KACK 162253Z 27009KT 10SM CLR 09/09 A2970 RMK AO2 SLP057 T00890089 =
2017-11-16 16:53 METAR KACK 162153Z 29013G19KT 10SM CLR 09/09 A2967 RMK AO2 PK WND 28029/2118
                 SLP048 T00940094 =
2017-11-16 16:19 METAR KACK 162119Z 29023G29KT 10SM SCT006 SCT018 BKN060 11/11 A2966 RMK AO2 PK
                 WND 28029/2118 T01060106 =
2017-11-16 15:53 METAR KACK 162053Z 24016KT 10SM SCT018 BKN075 12/12 A2964 RMK AO2 PK WND
                 14030/2013 RAE06 SLP038 P0001 60041 T01220117 56043 =
2017-11-16 15:31 METAR KACK 162031Z 19011KT 3SM BR FEW011 BKN030 OVC075 12/12 A2964 RMK AO2 PK
                 WND 14030/2013 RAE06 P0001 T01220122 =
2017-11-16 14:53 METAR KACK 161953Z AUTO 14014G27KT 3SM -RA BR OVC004 11/11 A2965 RMK AO2 PK WND
                 12028/1902 SLP041 P0020 T01060106 =

Support USWX by starting your Amazon purchase here.